sensor_id;sensor_type;location;lat;lon;timestamp;temperature;humidity
14061;DHT22;7105;43.616;1.434;2023-04-03T00:01:12;10.00;99.90
14061;DHT22;7105;43.616;1.434;2023-04-03T00:03:38;10.00;99.90
14061;DHT22;7105;43.616;1.434;2023-04-03T00:06:04;10.00;99.90
14061;DHT22;7105;43.616;1.434;2023-04-03T00:08:32;10.00;99.90
14061;DHT22;7105;43.616;1.434;2023-04-03T00:10:58;10.10;99.90
14061;DHT22;7105;43.616;1.434;2023-04-03T00:13:24;10.00;99.90
14061;DHT22;7105;43.616;1.434;2023-04-03T00:15:51;10.10;99.90
14061;DHT22;7105;43.616;1.434;2023-04-03T00:18:17;10.10;99.90
14061;DHT22;7105;43.616;1.434;2023-04-03T00:20:42;10.10;99.90
14061;DHT22;7105;43.616;1.434;2023-04-03T00:23:08;10.10;99.90
14061;DHT22;7105;43.616;1.434;2023-04-03T00:25:34;10.10;99.90
14061;DHT22;7105;43.616;1.434;2023-04-03T00:28:00;10.10;99.90
14061;DHT22;7105;43.616;1.434;2023-04-03T00:30:26;10.00;99.90
14061;DHT22;7105;43.616;1.434;2023-04-03T00:32:52;10.00;99.90
14061;DHT22;7105;43.616;1.434;2023-04-03T00:35:20;10.00;99.90
14061;DHT22;7105;43.616;1.434;2023-04-03T00:37:46;10.00;99.90
14061;DHT22;7105;43.616;1.434;2023-04-03T00:40:14;10.00;99.90
14061;DHT22;7105;43.616;1.434;2023-04-03T00:42:41;10.00;99.90
14061;DHT22;7105;43.616;1.434;2023-04-03T00:47:40;10.00;99.90
14061;DHT22;7105;43.616;1.434;2023-04-03T00:50:06;9.90;99.90
14061;DHT22;7105;43.616;1.434;2023-04-03T00:52:32;9.90;99.90
14061;DHT22;7105;43.616;1.434;2023-04-03T00:55:03;9.90;99.90
14061;DHT22;7105;43.616;1.434;2023-04-03T00:57:30;9.90;99.90
14061;DHT22;7105;43.616;1.434;2023-04-03T01:00:04;9.90;99.90
14061;DHT22;7105;43.616;1.434;2023-04-03T01:02:31;9.90;99.90
14061;DHT22;7105;43.616;1.434;2023-04-03T01:04:57;9.90;99.90
14061;DHT22;7105;43.616;1.434;2023-04-03T01:07:28;9.90;99.90
14061;DHT22;7105;43.616;1.434;2023-04-03T01:09:58;9.90;99.90
14061;DHT22;7105;43.616;1.434;2023-04-03T01:14:57;9.90;99.90
14061;DHT22;7105;43.616;1.434;2023-04-03T01:17:47;9.90;99.90
14061;DHT22;7105;43.616;1.434;2023-04-03T01:25:13;9.80;99.90
14061;DHT22;7105;43.616;1.434;2023-04-03T01:27:39;9.80;99.90
14061;DHT22;7105;43.616;1.434;2023-04-03T01:30:06;9.80;99.90
14061;DHT22;7105;43.616;1.434;2023-04-03T01:32:32;9.80;99.90
14061;DHT22;7105;43.616;1.434;2023-04-03T01:34:57;9.80;99.90
14061;DHT22;7105;43.616;1.434;2023-04-03T01:37:23;9.80;99.90
14061;DHT22;7105;43.616;1.434;2023-04-03T01:39:49;9.80;99.90
14061;DHT22;7105;43.616;1.434;2023-04-03T01:42:14;9.80;99.90
14061;DHT22;7105;43.616;1.434;2023-04-03T01:44:41;9.80;99.90
14061;DHT22;7105;43.616;1.434;2023-04-03T01:47:07;9.80;99.90
14061;DHT22;7105;43.616;1.434;2023-04-03T01:49:33;9.80;99.90
14061;DHT22;7105;43.616;1.434;2023-04-03T01:51:58;9.70;99.90
14061;DHT22;7105;43.616;1.434;2023-04-03T01:54:24;9.70;99.90
14061;DHT22;7105;43.616;1.434;2023-04-03T01:56:50;9.70;99.90
14061;DHT22;7105;43.616;1.434;2023-04-03T01:59:16;9.80;99.90
14061;DHT22;7105;43.616;1.434;2023-04-03T02:01:43;9.70;99.90
14061;DHT22;7105;43.616;1.434;2023-04-03T02:04:11;9.70;99.90
14061;DHT22;7105;43.616;1.434;2023-04-03T02:06:37;9.70;99.90
14061;DHT22;7105;43.616;1.434;2023-04-03T02:09:03;9.60;99.90
14061;DHT22;7105;43.616;1.434;2023-04-03T02:11:29;9.60;99.90
14061;DHT22;7105;43.616;1.434;2023-04-03T02:13:55;9.60;99.90
14061;DHT22;7105;43.616;1.434;2023-04-03T02:16:21;9.60;99.90
14061;DHT22;7105;43.616;1.434;2023-04-03T02:18:47;9.60;99.90
14061;DHT22;7105;43.616;1.434;2023-04-03T02:21:12;9.60;99.90
14061;DHT22;7105;43.616;1.434;2023-04-03T02:23:38;9.60;99.90
14061;DHT22;7105;43.616;1.434;2023-04-03T02:26:09;9.60;99.90
14061;DHT22;7105;43.616;1.434;2023-04-03T02:28:35;9.60;99.90
14061;DHT22;7105;43.616;1.434;2023-04-03T02:31:01;9.60;99.90
14061;DHT22;7105;43.616;1.434;2023-04-03T02:33:27;9.60;99.90
14061;DHT22;7105;43.616;1.434;2023-04-03T02:35:54;9.50;99.90
14061;DHT22;7105;43.616;1.434;2023-04-03T02:38:20;9.50;99.90
14061;DHT22;7105;43.616;1.434;2023-04-03T02:40:46;9.50;99.90
14061;DHT22;7105;43.616;1.434;2023-04-03T02:43:12;9.50;99.90
14061;DHT22;7105;43.616;1.434;2023-04-03T02:45:38;9.50;99.90
14061;DHT22;7105;43.616;1.434;2023-04-03T02:48:03;9.50;99.90
14061;DHT22;7105;43.616;1.434;2023-04-03T02:50:29;9.40;99.90
14061;DHT22;7105;43.616;1.434;2023-04-03T02:52:55;9.50;99.90
14061;DHT22;7105;43.616;1.434;2023-04-03T02:55:21;9.50;99.90
14061;DHT22;7105;43.616;1.434;2023-04-03T02:57:47;9.50;99.90
14061;DHT22;7105;43.616;1.434;2023-04-03T03:00:13;9.40;99.90
14061;DHT22;7105;43.616;1.434;2023-04-03T03:02:40;9.40;99.90
14061;DHT22;7105;43.616;1.434;2023-04-03T03:05:06;9.50;99.90
14061;DHT22;7105;43.616;1.434;2023-04-03T03:07:32;9.50;99.90
14061;DHT22;7105;43.616;1.434;2023-04-03T03:09:58;9.50;99.90
14061;DHT22;7105;43.616;1.434;2023-04-03T03:12:24;9.50;99.90
14061;DHT22;7105;43.616;1.434;2023-04-03T03:14:50;9.50;99.90
14061;DHT22;7105;43.616;1.434;2023-04-03T03:17:16;9.50;99.90
14061;DHT22;7105;43.616;1.434;2023-04-03T03:19:43;9.50;99.90
14061;DHT22;7105;43.616;1.434;2023-04-03T03:22:08;9.40;99.90
14061;DHT22;7105;43.616;1.434;2023-04-03T03:24:34;9.40;99.90
14061;DHT22;7105;43.616;1.434;2023-04-03T03:27:00;9.40;99.90
14061;DHT22;7105;43.616;1.434;2023-04-03T03:29:25;9.30;99.90
14061;DHT22;7105;43.616;1.434;2023-04-03T03:31:51;9.40;99.90
14061;DHT22;7105;43.616;1.434;2023-04-03T03:34:17;9.40;99.90
14061;DHT22;7105;43.616;1.434;2023-04-03T03:36:43;9.50;99.90
14061;DHT22;7105;43.616;1.434;2023-04-03T03:39:09;9.50;99.90
14061;DHT22;7105;43.616;1.434;2023-04-03T03:41:34;9.40;99.90
14061;DHT22;7105;43.616;1.434;2023-04-03T03:44:00;9.40;99.90
14061;DHT22;7105;43.616;1.434;2023-04-03T03:46:26;9.40;99.90
14061;DHT22;7105;43.616;1.434;2023-04-03T03:48:52;9.30;99.90
14061;DHT22;7105;43.616;1.434;2023-04-03T03:51:17;9.30;99.90
14061;DHT22;7105;43.616;1.434;2023-04-03T03:53:43;9.30;99.90
14061;DHT22;7105;43.616;1.434;2023-04-03T03:56:09;9.40;99.90
14061;DHT22;7105;43.616;1.434;2023-04-03T03:58:35;9.40;99.90
14061;DHT22;7105;43.616;1.434;2023-04-03T04:01:02;9.40;99.90
14061;DHT22;7105;43.616;1.434;2023-04-03T04:03:28;9.40;99.90
14061;DHT22;7105;43.616;1.434;2023-04-03T04:05:54;9.40;99.90
14061;DHT22;7105;43.616;1.434;2023-04-03T04:08:20;9.40;99.90
14061;DHT22;7105;43.616;1.434;2023-04-03T04:10:46;9.40;99.90
14061;DHT22;7105;43.616;1.434;2023-04-03T04:13:11;9.40;99.90
14061;DHT22;7105;43.616;1.434;2023-04-03T04:15:37;9.40;99.90
14061;DHT22;7105;43.616;1.434;2023-04-03T04:18:03;9.30;99.90
14061;DHT22;7105;43.616;1.434;2023-04-03T04:20:28;9.30;99.90
14061;DHT22;7105;43.616;1.434;2023-04-03T04:22:54;9.30;99.90
14061;DHT22;7105;43.616;1.434;2023-04-03T04:25:20;9.30;99.90
14061;DHT22;7105;43.616;1.434;2023-04-03T04:27:46;9.40;99.90
14061;DHT22;7105;43.616;1.434;2023-04-03T04:30:12;9.30;99.90
14061;DHT22;7105;43.616;1.434;2023-04-03T04:32:38;9.30;99.90
14061;DHT22;7105;43.616;1.434;2023-04-03T04:35:04;9.40;99.90
14061;DHT22;7105;43.616;1.434;2023-04-03T04:37:30;9.40;99.90
14061;DHT22;7105;43.616;1.434;2023-04-03T04:39:56;9.30;99.90
14061;DHT22;7105;43.616;1.434;2023-04-03T04:42:21;9.30;99.90
14061;DHT22;7105;43.616;1.434;2023-04-03T04:44:47;9.30;99.90
14061;DHT22;7105;43.616;1.434;2023-04-03T04:47:18;9.30;99.90
14061;DHT22;7105;43.616;1.434;2023-04-03T04:49:44;9.30;99.90
14061;DHT22;7105;43.616;1.434;2023-04-03T04:52:12;9.30;99.90
14061;DHT22;7105;43.616;1.434;2023-04-03T04:54:38;9.30;99.90
14061;DHT22;7105;43.616;1.434;2023-04-03T04:57:04;9.20;99.90
14061;DHT22;7105;43.616;1.434;2023-04-03T04:59:30;9.20;99.90
14061;DHT22;7105;43.616;1.434;2023-04-03T05:01:56;9.30;99.90
14061;DHT22;7105;43.616;1.434;2023-04-03T05:04:22;9.30;99.90
14061;DHT22;7105;43.616;1.434;2023-04-03T05:06:47;9.30;99.90
14061;DHT22;7105;43.616;1.434;2023-04-03T05:09:13;9.20;99.90
14061;DHT22;7105;43.616;1.434;2023-04-03T05:11:39;9.20;99.90
14061;DHT22;7105;43.616;1.434;2023-04-03T05:14:04;9.30;99.90
14061;DHT22;7105;43.616;1.434;2023-04-03T05:16:33;9.20;99.90
14061;DHT22;7105;43.616;1.434;2023-04-03T05:18:59;9.20;99.90
14061;DHT22;7105;43.616;1.434;2023-04-03T05:21:25;9.20;99.90
14061;DHT22;7105;43.616;1.434;2023-04-03T05:23:53;9.20;99.90
14061;DHT22;7105;43.616;1.434;2023-04-03T05:26:18;9.20;99.90
14061;DHT22;7105;43.616;1.434;2023-04-03T05:28:44;9.20;99.90
14061;DHT22;7105;43.616;1.434;2023-04-03T05:31:10;9.20;99.90
14061;DHT22;7105;43.616;1.434;2023-04-03T05:33:35;9.20;99.90
14061;DHT22;7105;43.616;1.434;2023-04-03T05:36:05;9.20;99.90
14061;DHT22;7105;43.616;1.434;2023-04-03T05:38:31;9.20;99.90
14061;DHT22;7105;43.616;1.434;2023-04-03T05:40:57;9.20;99.90
14061;DHT22;7105;43.616;1.434;2023-04-03T05:43:23;9.30;99.90
14061;DHT22;7105;43.616;1.434;2023-04-03T05:45:48;9.30;99.90
14061;DHT22;7105;43.616;1.434;2023-04-03T05:48:14;9.30;99.90
14061;DHT22;7105;43.616;1.434;2023-04-03T05:50:40;9.30;99.90
14061;DHT22;7105;43.616;1.434;2023-04-03T05:53:14;9.40;99.90
14061;DHT22;7105;43.616;1.434;2023-04-03T05:55:41;9.40;99.90
14061;DHT22;7105;43.616;1.434;2023-04-03T05:58:07;9.40;99.90
14061;DHT22;7105;43.616;1.434;2023-04-03T06:00:33;9.40;99.90
14061;DHT22;7105;43.616;1.434;2023-04-03T06:02:58;9.30;99.90
14061;DHT22;7105;43.616;1.434;2023-04-03T06:05:24;9.40;99.90
14061;DHT22;7105;43.616;1.434;2023-04-03T06:07:50;9.40;99.90
14061;DHT22;7105;43.616;1.434;2023-04-03T06:10:16;9.30;99.90
14061;DHT22;7105;43.616;1.434;2023-04-03T06:12:42;9.40;99.90
14061;DHT22;7105;43.616;1.434;2023-04-03T06:15:08;9.50;99.90
14061;DHT22;7105;43.616;1.434;2023-04-03T06:17:36;9.50;99.90
14061;DHT22;7105;43.616;1.434;2023-04-03T06:20:03;9.40;99.90
14061;DHT22;7105;43.616;1.434;2023-04-03T06:22:29;9.40;99.90
14061;DHT22;7105;43.616;1.434;2023-04-03T06:24:56;9.40;99.90
14061;DHT22;7105;43.616;1.434;2023-04-03T06:27:22;9.40;99.90
14061;DHT22;7105;43.616;1.434;2023-04-03T06:29:47;9.40;99.90
14061;DHT22;7105;43.616;1.434;2023-04-03T06:32:15;9.40;99.90
14061;DHT22;7105;43.616;1.434;2023-04-03T06:34:40;9.50;99.90
14061;DHT22;7105;43.616;1.434;2023-04-03T06:37:15;9.50;99.90
14061;DHT22;7105;43.616;1.434;2023-04-03T06:39:41;9.50;99.90
14061;DHT22;7105;43.616;1.434;2023-04-03T06:42:07;9.60;99.90
14061;DHT22;7105;43.616;1.434;2023-04-03T06:44:33;9.60;99.90
14061;DHT22;7105;43.616;1.434;2023-04-03T06:47:00;9.50;99.90
14061;DHT22;7105;43.616;1.434;2023-04-03T06:49:26;9.50;99.90
14061;DHT22;7105;43.616;1.434;2023-04-03T06:51:52;9.50;99.90
14061;DHT22;7105;43.616;1.434;2023-04-03T06:54:18;9.60;99.90
14061;DHT22;7105;43.616;1.434;2023-04-03T06:56:43;9.60;99.90
14061;DHT22;7105;43.616;1.434;2023-04-03T06:59:10;9.60;99.90
14061;DHT22;7105;43.616;1.434;2023-04-03T07:01:38;9.60;99.90
14061;DHT22;7105;43.616;1.434;2023-04-03T07:04:03;9.60;99.90
14061;DHT22;7105;43.616;1.434;2023-04-03T07:06:29;9.60;99.90
14061;DHT22;7105;43.616;1.434;2023-04-03T07:08:56;9.60;99.90
14061;DHT22;7105;43.616;1.434;2023-04-03T07:11:23;9.70;99.90
14061;DHT22;7105;43.616;1.434;2023-04-03T07:13:49;9.80;99.90
14061;DHT22;7105;43.616;1.434;2023-04-03T07:16:15;9.70;99.90
14061;DHT22;7105;43.616;1.434;2023-04-03T07:18:41;9.80;99.90
14061;DHT22;7105;43.616;1.434;2023-04-03T07:21:07;9.80;99.90
14061;DHT22;7105;43.616;1.434;2023-04-03T07:23:33;9.90;99.90
14061;DHT22;7105;43.616;1.434;2023-04-03T07:25:59;9.90;99.90
14061;DHT22;7105;43.616;1.434;2023-04-03T07:28:25;10.60;99.90
14061;DHT22;7105;43.616;1.434;2023-04-03T07:31:01;10.10;99.90
14061;DHT22;7105;43.616;1.434;2023-04-03T07:33:27;10.00;99.90
14061;DHT22;7105;43.616;1.434;2023-04-03T07:35:53;10.00;99.90
14061;DHT22;7105;43.616;1.434;2023-04-03T07:38:19;10.00;99.90
14061;DHT22;7105;43.616;1.434;2023-04-03T07:40:48;10.10;99.90
14061;DHT22;7105;43.616;1.434;2023-04-03T07:43:16;10.10;99.90
14061;DHT22;7105;43.616;1.434;2023-04-03T07:45:43;10.20;99.90
14061;DHT22;7105;43.616;1.434;2023-04-03T07:48:10;10.30;99.90
14061;DHT22;7105;43.616;1.434;2023-04-03T07:50:36;10.30;99.90
14061;DHT22;7105;43.616;1.434;2023-04-03T07:53:02;10.30;99.90
14061;DHT22;7105;43.616;1.434;2023-04-03T07:55:28;10.30;99.90
14061;DHT22;7105;43.616;1.434;2023-04-03T07:57:54;10.40;99.90
14061;DHT22;7105;43.616;1.434;2023-04-03T08:00:21;10.30;99.90
14061;DHT22;7105;43.616;1.434;2023-04-03T08:02:46;10.40;99.90
14061;DHT22;7105;43.616;1.434;2023-04-03T08:05:20;10.20;99.90
14061;DHT22;7105;43.616;1.434;2023-04-03T08:07:46;10.20;99.90
14061;DHT22;7105;43.616;1.434;2023-04-03T08:10:12;10.20;99.90
14061;DHT22;7105;43.616;1.434;2023-04-03T08:12:38;10.30;99.90
14061;DHT22;7105;43.616;1.434;2023-04-03T08:15:04;10.40;99.90
14061;DHT22;7105;43.616;1.434;2023-04-03T08:17:30;10.40;99.90
14061;DHT22;7105;43.616;1.434;2023-04-03T08:19:56;10.70;99.90
14061;DHT22;7105;43.616;1.434;2023-04-03T08:22:21;10.70;99.90
14061;DHT22;7105;43.616;1.434;2023-04-03T08:24:47;10.80;99.90
14061;DHT22;7105;43.616;1.434;2023-04-03T08:27:13;10.90;99.90
14061;DHT22;7105;43.616;1.434;2023-04-03T08:29:38;11.10;99.90
14061;DHT22;7105;43.616;1.434;2023-04-03T08:32:07;11.10;99.90
14061;DHT22;7105;43.616;1.434;2023-04-03T08:34:33;11.30;99.90
14061;DHT22;7105;43.616;1.434;2023-04-03T08:37:00;11.50;99.90
14061;DHT22;7105;43.616;1.434;2023-04-03T08:39:27;11.60;99.90
14061;DHT22;7105;43.616;1.434;2023-04-03T08:41:55;11.50;99.90
14061;DHT22;7105;43.616;1.434;2023-04-03T08:44:55;11.40;99.90
14061;DHT22;7105;43.616;1.434;2023-04-03T08:47:43;11.40;99.90
14061;DHT22;7105;43.616;1.434;2023-04-03T08:50:16;11.90;99.90
14061;DHT22;7105;43.616;1.434;2023-04-03T08:52:49;14.00;99.90
14061;DHT22;7105;43.616;1.434;2023-04-03T08:55:29;18.60;99.90
14061;DHT22;7105;43.616;1.434;2023-04-03T08:58:03;20.40;99.90
14061;DHT22;7105;43.616;1.434;2023-04-03T09:00:44;23.30;99.90
14061;DHT22;7105;43.616;1.434;2023-04-03T09:03:16;22.70;99.90
14061;DHT22;7105;43.616;1.434;2023-04-03T09:06:05;23.00;99.90
14061;DHT22;7105;43.616;1.434;2023-04-03T09:09:00;17.20;99.90
14061;DHT22;7105;43.616;1.434;2023-04-03T09:11:33;16.10;99.90
14061;DHT22;7105;43.616;1.434;2023-04-03T09:14:14;15.40;99.90
14061;DHT22;7105;43.616;1.434;2023-04-03T09:21:57;12.80;99.90
14061;DHT22;7105;43.616;1.434;2023-04-03T09:24:24;13.40;99.90
14061;DHT22;7105;43.616;1.434;2023-04-03T09:26:56;13.30;99.90
14061;DHT22;7105;43.616;1.434;2023-04-03T09:29:26;13.00;99.90
14061;DHT22;7105;43.616;1.434;2023-04-03T09:32:01;13.20;99.90
14061;DHT22;7105;43.616;1.434;2023-04-03T09:34:31;13.00;99.90
14061;DHT22;7105;43.616;1.434;2023-04-03T09:36:59;12.80;99.90
14061;DHT22;7105;43.616;1.434;2023-04-03T09:39:32;12.50;99.90
14061;DHT22;7105;43.616;1.434;2023-04-03T09:42:02;12.90;99.90
14061;DHT22;7105;43.616;1.434;2023-04-03T09:44:31;13.10;99.90
14061;DHT22;7105;43.616;1.434;2023-04-03T09:46:58;13.20;99.90
14061;DHT22;7105;43.616;1.434;2023-04-03T09:49:24;13.10;99.90
14061;DHT22;7105;43.616;1.434;2023-04-03T09:51:50;13.20;99.90
14061;DHT22;7105;43.616;1.434;2023-04-03T09:54:35;13.10;99.90
14061;DHT22;7105;43.616;1.434;2023-04-03T09:57:20;12.90;99.90
14061;DHT22;7105;43.616;1.434;2023-04-03T09:59:59;13.10;99.90
14061;DHT22;7105;43.616;1.434;2023-04-03T10:05:00;13.10;99.90
14061;DHT22;7105;43.616;1.434;2023-04-03T10:10:10;13.20;99.90
14061;DHT22;7105;43.616;1.434;2023-04-03T10:12:40;13.20;99.90
14061;DHT22;7105;43.616;1.434;2023-04-03T10:15:17;13.90;99.90
14061;DHT22;7105;43.616;1.434;2023-04-03T10:18:06;13.80;99.90
14061;DHT22;7105;43.616;1.434;2023-04-03T10:20:49;13.40;99.90
14061;DHT22;7105;43.616;1.434;2023-04-03T10:23:47;13.20;99.90
14061;DHT22;7105;43.616;1.434;2023-04-03T10:54:11;13.80;99.90
14061;DHT22;7105;43.616;1.434;2023-04-03T10:56:46;13.40;99.90
14061;DHT22;7105;43.616;1.434;2023-04-03T10:59:33;13.20;99.90
14061;DHT22;7105;43.616;1.434;2023-04-03T11:02:16;13.70;99.90
14061;DHT22;7105;43.616;1.434;2023-04-03T11:04:45;13.80;99.90
14061;DHT22;7105;43.616;1.434;2023-04-03T11:07:23;14.10;99.90
14061;DHT22;7105;43.616;1.434;2023-04-03T11:09:53;14.30;99.90
14061;DHT22;7105;43.616;1.434;2023-04-03T11:12:40;14.00;99.90
14061;DHT22;7105;43.616;1.434;2023-04-03T11:15:15;13.70;99.90
14061;DHT22;7105;43.616;1.434;2023-04-03T11:17:46;13.80;99.90
14061;DHT22;7105;43.616;1.434;2023-04-03T11:20:23;13.70;99.90
14061;DHT22;7105;43.616;1.434;2023-04-03T11:25:31;13.10;99.90
14061;DHT22;7105;43.616;1.434;2023-04-03T11:28:06;13.10;99.90
14061;DHT22;7105;43.616;1.434;2023-04-03T11:33:41;13.10;99.90
14061;DHT22;7105;43.616;1.434;2023-04-03T11:36:32;13.60;99.90
14061;DHT22;7105;43.616;1.434;2023-04-03T11:39:02;14.00;99.90
14061;DHT22;7105;43.616;1.434;2023-04-03T11:41:33;13.90;99.90
14061;DHT22;7105;43.616;1.434;2023-04-03T11:44:44;13.60;99.90
14061;DHT22;7105;43.616;1.434;2023-04-03T11:46:52;13.60;99.90
14061;DHT22;7105;43.616;1.434;2023-04-03T11:49:55;13.50;99.90
14061;DHT22;7105;43.616;1.434;2023-04-03T12:14:01;14.00;99.90
14061;DHT22;7105;43.616;1.434;2023-04-03T12:19:04;14.10;99.90
14061;DHT22;7105;43.616;1.434;2023-04-03T12:34:57;14.00;99.90
14061;DHT22;7105;43.616;1.434;2023-04-03T12:46:22;13.80;99.90
14061;DHT22;7105;43.616;1.434;2023-04-03T12:48:51;13.90;99.90
14061;DHT22;7105;43.616;1.434;2023-04-03T12:53:48;14.00;99.90
14061;DHT22;7105;43.616;1.434;2023-04-03T12:56:44;14.00;99.90
14061;DHT22;7105;43.616;1.434;2023-04-03T12:59:22;14.10;99.90
14061;DHT22;7105;43.616;1.434;2023-04-03T13:02:00;13.70;99.90
14061;DHT22;7105;43.616;1.434;2023-04-03T13:04:31;13.90;99.90
14061;DHT22;7105;43.616;1.434;2023-04-03T13:06:57;13.90;99.90
14061;DHT22;7105;43.616;1.434;2023-04-03T13:09:32;14.20;99.90
14061;DHT22;7105;43.616;1.434;2023-04-03T13:14:27;14.30;99.90
14061;DHT22;7105;43.616;1.434;2023-04-03T13:17:06;14.30;99.90
14061;DHT22;7105;43.616;1.434;2023-04-03T13:19:36;14.50;99.90
14061;DHT22;7105;43.616;1.434;2023-04-03T13:22:24;14.70;99.90
14061;DHT22;7105;43.616;1.434;2023-04-03T13:24:52;14.50;99.90
14061;DHT22;7105;43.616;1.434;2023-04-03T13:27:19;14.50;99.90
14061;DHT22;7105;43.616;1.434;2023-04-03T13:29:50;14.30;99.90
14061;DHT22;7105;43.616;1.434;2023-04-03T13:32:20;14.20;99.90
14061;DHT22;7105;43.616;1.434;2023-04-03T13:34:47;14.30;99.90
14061;DHT22;7105;43.616;1.434;2023-04-03T13:37:22;14.30;99.90
14061;DHT22;7105;43.616;1.434;2023-04-03T13:40:00;14.60;99.90
14061;DHT22;7105;43.616;1.434;2023-04-03T13:42:29;14.30;99.90
14061;DHT22;7105;43.616;1.434;2023-04-03T13:45:30;13.90;99.90
14061;DHT22;7105;43.616;1.434;2023-04-03T13:48:18;14.60;99.90
14061;DHT22;7105;43.616;1.434;2023-04-03T13:53:28;13.90;99.90
14061;DHT22;7105;43.616;1.434;2023-04-03T13:55:56;14.10;99.90
14061;DHT22;7105;43.616;1.434;2023-04-03T13:58:27;14.30;99.90
14061;DHT22;7105;43.616;1.434;2023-04-03T14:01:07;13.90;99.90
14061;DHT22;7105;43.616;1.434;2023-04-03T14:03:39;14.30;99.90
14061;DHT22;7105;43.616;1.434;2023-04-03T14:06:05;14.30;99.90
14061;DHT22;7105;43.616;1.434;2023-04-03T14:08:31;14.50;99.90
14061;DHT22;7105;43.616;1.434;2023-04-03T14:10:57;14.40;99.90
14061;DHT22;7105;43.616;1.434;2023-04-03T14:13:23;14.20;99.90
14061;DHT22;7105;43.616;1.434;2023-04-03T14:15:49;14.40;99.90
14061;DHT22;7105;43.616;1.434;2023-04-03T14:18:19;14.20;99.90
14061;DHT22;7105;43.616;1.434;2023-04-03T14:20:45;14.30;99.90
14061;DHT22;7105;43.616;1.434;2023-04-03T14:23:10;14.40;99.90
14061;DHT22;7105;43.616;1.434;2023-04-03T14:25:37;14.10;99.90
14061;DHT22;7105;43.616;1.434;2023-04-03T14:28:23;13.90;99.90
14061;DHT22;7105;43.616;1.434;2023-04-03T14:30:50;14.10;99.90
14061;DHT22;7105;43.616;1.434;2023-04-03T14:33:21;14.10;99.90
14061;DHT22;7105;43.616;1.434;2023-04-03T14:35:47;14.20;99.90
14061;DHT22;7105;43.616;1.434;2023-04-03T14:38:25;14.10;99.90
14061;DHT22;7105;43.616;1.434;2023-04-03T14:40:52;14.10;99.90
14061;DHT22;7105;43.616;1.434;2023-04-03T14:43:19;14.30;99.90
14061;DHT22;7105;43.616;1.434;2023-04-03T14:45:46;14.10;99.90
14061;DHT22;7105;43.616;1.434;2023-04-03T14:48:22;13.90;99.90
14061;DHT22;7105;43.616;1.434;2023-04-03T14:50:49;14.20;99.90
14061;DHT22;7105;43.616;1.434;2023-04-03T14:53:16;14.30;99.90
14061;DHT22;7105;43.616;1.434;2023-04-03T14:55:44;14.40;99.90
14061;DHT22;7105;43.616;1.434;2023-04-03T14:58:16;14.50;99.90
14061;DHT22;7105;43.616;1.434;2023-04-03T15:00:42;14.70;99.90
14061;DHT22;7105;43.616;1.434;2023-04-03T15:03:20;14.70;99.90
14061;DHT22;7105;43.616;1.434;2023-04-03T15:05:47;14.70;99.90
14061;DHT22;7105;43.616;1.434;2023-04-03T15:08:27;14.40;99.90
14061;DHT22;7105;43.616;1.434;2023-04-03T15:10:55;14.50;99.90
14061;DHT22;7105;43.616;1.434;2023-04-03T15:13:24;14.30;99.90
14061;DHT22;7105;43.616;1.434;2023-04-03T15:15:50;14.20;99.90
14061;DHT22;7105;43.616;1.434;2023-04-03T15:18:20;14.30;99.90
14061;DHT22;7105;43.616;1.434;2023-04-03T15:20:47;14.30;99.90
14061;DHT22;7105;43.616;1.434;2023-04-03T15:23:14;14.30;99.90
14061;DHT22;7105;43.616;1.434;2023-04-03T15:25:46;14.20;99.90
14061;DHT22;7105;43.616;1.434;2023-04-03T15:28:19;14.20;99.90
14061;DHT22;7105;43.616;1.434;2023-04-03T15:30:47;14.50;99.90
14061;DHT22;7105;43.616;1.434;2023-04-03T15:33:13;14.50;99.90
14061;DHT22;7105;43.616;1.434;2023-04-03T15:35:41;14.40;99.90
14061;DHT22;7105;43.616;1.434;2023-04-03T15:38:07;14.30;99.90
14061;DHT22;7105;43.616;1.434;2023-04-03T15:40:33;14.30;99.90
14061;DHT22;7105;43.616;1.434;2023-04-03T15:42:58;14.50;99.90
14061;DHT22;7105;43.616;1.434;2023-04-03T15:45:25;14.50;99.90
14061;DHT22;7105;43.616;1.434;2023-04-03T15:47:53;14.50;99.90
14061;DHT22;7105;43.616;1.434;2023-04-03T15:50:19;14.60;99.90
14061;DHT22;7105;43.616;1.434;2023-04-03T15:52:47;14.50;99.90
14061;DHT22;7105;43.616;1.434;2023-04-03T15:55:13;14.40;99.90
14061;DHT22;7105;43.616;1.434;2023-04-03T15:57:39;14.30;99.90
14061;DHT22;7105;43.616;1.434;2023-04-03T16:00:05;14.30;99.90
14061;DHT22;7105;43.616;1.434;2023-04-03T16:02:32;14.20;99.90
14061;DHT22;7105;43.616;1.434;2023-04-03T16:04:59;14.10;99.90
14061;DHT22;7105;43.616;1.434;2023-04-03T16:07:24;14.00;99.90
14061;DHT22;7105;43.616;1.434;2023-04-03T16:09:50;14.00;99.90
14061;DHT22;7105;43.616;1.434;2023-04-03T16:12:17;14.00;99.90
14061;DHT22;7105;43.616;1.434;2023-04-03T16:14:42;13.90;99.90
14061;DHT22;7105;43.616;1.434;2023-04-03T16:17:08;13.90;99.90
14061;DHT22;7105;43.616;1.434;2023-04-03T16:19:34;13.90;99.90
14061;DHT22;7105;43.616;1.434;2023-04-03T16:22:00;13.80;99.90
14061;DHT22;7105;43.616;1.434;2023-04-03T16:24:25;13.80;99.90
14061;DHT22;7105;43.616;1.434;2023-04-03T16:26:51;13.80;99.90
14061;DHT22;7105;43.616;1.434;2023-04-03T16:29:18;13.80;99.90
14061;DHT22;7105;43.616;1.434;2023-04-03T16:31:44;13.90;99.90
14061;DHT22;7105;43.616;1.434;2023-04-03T16:34:10;13.90;99.90
14061;DHT22;7105;43.616;1.434;2023-04-03T16:36:36;13.90;99.90
14061;DHT22;7105;43.616;1.434;2023-04-03T16:39:03;14.10;99.90
14061;DHT22;7105;43.616;1.434;2023-04-03T16:41:29;14.40;99.90
14061;DHT22;7105;43.616;1.434;2023-04-03T16:43:54;14.40;99.90
14061;DHT22;7105;43.616;1.434;2023-04-03T16:46:20;14.30;99.90
14061;DHT22;7105;43.616;1.434;2023-04-03T16:48:46;14.30;99.90
14061;DHT22;7105;43.616;1.434;2023-04-03T16:51:12;14.30;99.90
14061;DHT22;7105;43.616;1.434;2023-04-03T16:53:38;14.30;99.90
14061;DHT22;7105;43.616;1.434;2023-04-03T16:56:04;14.20;99.90
14061;DHT22;7105;43.616;1.434;2023-04-03T16:58:30;14.20;99.90
14061;DHT22;7105;43.616;1.434;2023-04-03T17:00:56;14.00;99.90
14061;DHT22;7105;43.616;1.434;2023-04-03T17:03:22;13.90;99.90
14061;DHT22;7105;43.616;1.434;2023-04-03T17:05:50;13.90;99.90
14061;DHT22;7105;43.616;1.434;2023-04-03T17:08:17;13.80;99.90
14061;DHT22;7105;43.616;1.434;2023-04-03T17:10:43;13.80;99.90
14061;DHT22;7105;43.616;1.434;2023-04-03T17:13:09;13.90;99.90
14061;DHT22;7105;43.616;1.434;2023-04-03T17:15:34;13.90;99.90
14061;DHT22;7105;43.616;1.434;2023-04-03T17:18:00;13.90;99.90
14061;DHT22;7105;43.616;1.434;2023-04-03T17:20:26;13.80;99.90
14061;DHT22;7105;43.616;1.434;2023-04-03T17:22:52;13.80;99.90
14061;DHT22;7105;43.616;1.434;2023-04-03T17:25:19;13.80;99.90
14061;DHT22;7105;43.616;1.434;2023-04-03T17:27:45;13.70;99.90
14061;DHT22;7105;43.616;1.434;2023-04-03T17:30:10;13.70;99.90
14061;DHT22;7105;43.616;1.434;2023-04-03T17:32:36;13.60;99.90
14061;DHT22;7105;43.616;1.434;2023-04-03T17:35:03;13.60;99.90
14061;DHT22;7105;43.616;1.434;2023-04-03T17:37:29;13.60;99.90
14061;DHT22;7105;43.616;1.434;2023-04-03T17:39:54;13.50;99.90
14061;DHT22;7105;43.616;1.434;2023-04-03T17:42:20;13.50;99.90
14061;DHT22;7105;43.616;1.434;2023-04-03T17:44:46;13.40;99.90
14061;DHT22;7105;43.616;1.434;2023-04-03T17:47:11;13.30;99.90
14061;DHT22;7105;43.616;1.434;2023-04-03T17:49:37;13.30;99.90